createdAt,value
2023-05-09T00:02:31.048Z,3.03
2023-05-09T00:05:34.055Z,2.80
2023-05-09T00:08:38.107Z,2.55
2023-05-09T00:11:41.020Z,3.30
2023-05-09T00:14:45.633Z,3.10
2023-05-09T00:17:48.479Z,3.60
2023-05-09T00:20:51.372Z,3.03
2023-05-09T00:23:54.165Z,2.92
2023-05-09T00:26:57.017Z,3.20
2023-05-09T00:29:59.811Z,3.20
2023-05-09T00:33:02.735Z,3.50
2023-05-09T00:36:05.806Z,3.00
2023-05-09T00:39:08.703Z,3.17
2023-05-09T00:42:11.626Z,3.50
2023-05-09T00:45:14.558Z,3.25
2023-05-09T00:48:18.153Z,3.42
2023-05-09T00:51:21.785Z,3.30
2023-05-09T00:54:24.807Z,3.42
2023-05-09T00:57:27.689Z,3.20
2023-05-09T01:00:30.661Z,3.63
2023-05-09T01:03:33.536Z,3.75
2023-05-09T01:06:52.408Z,3.33
2023-05-09T01:10:17.863Z,3.60
2023-05-09T01:13:46.348Z,3.50
2023-05-09T01:16:59.069Z,3.25
2023-05-09T01:20:13.646Z,3.13
2023-05-09T01:23:48.658Z,3.10
2023-05-09T01:27:14.347Z,3.50
2023-05-09T01:30:18.548Z,3.42
2023-05-09T01:33:24.555Z,3.50
2023-05-09T01:36:33.106Z,3.75
2023-05-09T01:39:40.171Z,3.40
2023-05-09T01:42:47.935Z,3.40
2023-05-09T01:45:52.873Z,3.55
2023-05-09T01:48:57.481Z,3.70
2023-05-09T01:52:04.437Z,3.53
2023-05-09T01:55:09.635Z,3.37
2023-05-09T01:58:13.652Z,3.15
2023-05-09T02:01:17.813Z,3.63
2023-05-09T02:04:22.159Z,3.75
2023-05-09T02:07:25.738Z,3.85
2023-05-09T02:10:31.601Z,3.30
2023-05-09T02:13:34.434Z,3.50
2023-05-09T02:16:39.586Z,3.42
2023-05-09T02:19:43.472Z,4.00
2023-05-09T02:22:47.229Z,3.75
2023-05-09T02:25:51.115Z,3.33
2023-05-09T02:28:56.126Z,3.58
2023-05-09T02:32:01.387Z,3.67
2023-05-09T02:35:06.904Z,3.45
2023-05-09T02:38:10.451Z,3.65
2023-05-09T02:41:14.585Z,3.60
2023-05-09T02:44:17.432Z,3.20
2023-05-09T02:47:20.751Z,3.38
2023-05-09T02:50:23.725Z,3.22
2023-05-09T02:53:26.616Z,3.40
2023-05-09T02:56:29.440Z,2.87
2023-05-09T02:59:32.510Z,3.72
2023-05-09T03:02:38.874Z,3.70
2023-05-09T03:05:45.261Z,3.33
2023-05-09T03:08:48.059Z,3.20
2023-05-09T03:11:51.011Z,3.57
2023-05-09T03:14:53.873Z,3.50
2023-05-09T03:17:56.656Z,3.70
2023-05-09T03:20:59.557Z,3.63
2023-05-09T03:24:04.826Z,3.15
2023-05-09T03:27:07.676Z,3.13
2023-05-09T03:30:11.107Z,3.30
2023-05-09T03:33:13.842Z,3.75
2023-05-09T03:36:17.463Z,3.22
2023-05-09T03:39:20.449Z,3.40
2023-05-09T03:42:26.135Z,3.87
2023-05-09T03:45:32.759Z,3.22
2023-05-09T03:48:36.258Z,3.50
2023-05-09T03:51:41.896Z,3.70
2023-05-09T03:54:49.187Z,3.70
2023-05-09T03:57:52.440Z,3.60
2023-05-09T04:00:56.604Z,3.22
2023-05-09T04:04:01.659Z,3.25
2023-05-09T04:07:08.546Z,3.45
2023-05-09T04:10:12.306Z,3.50
2023-05-09T04:13:15.337Z,3.63
2023-05-09T04:16:18.726Z,3.30
2023-05-09T04:19:22.151Z,3.35
2023-05-09T04:22:25.084Z,3.30
2023-05-09T04:25:29.714Z,3.65
2023-05-09T04:28:32.670Z,3.33
2023-05-09T04:31:36.365Z,3.25
2023-05-09T04:34:40.948Z,3.22
2023-05-09T04:37:52.188Z,2.90
2023-05-09T04:40:55.452Z,3.85
2023-05-09T04:43:58.181Z,3.30
2023-05-09T04:47:02.079Z,3.30
2023-05-09T04:50:05.812Z,3.33
2023-05-09T04:53:09.410Z,3.33
2023-05-09T04:56:12.395Z,3.55
2023-05-09T04:59:15.411Z,3.03
2023-05-09T05:02:18.201Z,3.20
2023-05-09T05:05:25.334Z,3.00
2023-05-09T05:08:29.423Z,3.45
2023-05-09T05:11:32.594Z,3.70
2023-05-09T05:14:35.780Z,3.60
2023-05-09T05:17:40.405Z,3.67
2023-05-09T05:20:44.850Z,3.75
2023-05-09T05:23:48.072Z,4.40
2023-05-09T05:26:51.467Z,4.45
2023-05-09T05:29:54.934Z,3.53
2023-05-09T05:32:57.930Z,3.70
2023-05-09T05:36:02.270Z,3.67
2023-05-09T05:39:05.271Z,3.13
2023-05-09T05:42:08.279Z,3.42
2023-05-09T05:45:12.074Z,3.50
2023-05-09T05:48:19.434Z,3.28
2023-05-09T05:51:23.369Z,3.38
2023-05-09T05:54:27.141Z,3.25
2023-05-09T05:57:32.243Z,3.08
2023-05-09T06:00:36.585Z,3.47
2023-05-09T06:03:42.318Z,2.90
2023-05-09T06:06:49.320Z,3.50
2023-05-09T06:09:53.301Z,3.20
2023-05-09T06:12:56.290Z,3.35
2023-05-09T06:16:14.964Z,3.00
2023-05-09T06:19:18.646Z,3.85
2023-05-09T06:22:21.526Z,3.30
2023-05-09T06:25:24.422Z,3.40
2023-05-09T06:28:27.494Z,3.20
2023-05-09T06:31:30.406Z,3.07
2023-05-09T06:34:33.473Z,3.33
2023-05-09T06:37:37.605Z,3.47
2023-05-09T06:40:40.613Z,2.60
2023-05-09T06:43:43.697Z,3.22
2023-05-09T06:46:46.739Z,3.20
2023-05-09T06:49:49.690Z,3.00
2023-05-09T06:52:55.799Z,3.72
2023-05-09T06:55:58.726Z,3.30
2023-05-09T06:59:04.119Z,3.00
2023-05-09T07:02:07.648Z,3.10
2023-05-09T07:05:10.960Z,3.08
2023-05-09T07:08:14.045Z,2.90
2023-05-09T07:11:17.055Z,3.50
2023-05-09T07:14:20.815Z,3.50
2023-05-09T07:17:55.580Z,3.10
2023-05-09T07:20:58.554Z,3.10
2023-05-09T07:24:01.368Z,3.88
2023-05-09T07:27:04.311Z,3.50
2023-05-09T07:30:09.312Z,3.22
2023-05-09T07:33:16.729Z,3.10
2023-05-09T07:36:20.961Z,3.60
2023-05-09T07:39:23.866Z,3.47
2023-05-09T07:42:57.097Z,3.65
2023-05-09T07:46:03.449Z,3.47
2023-05-09T07:49:06.360Z,3.43
2023-05-09T07:53:02.448Z,3.50
2023-05-09T07:56:07.064Z,3.05
2023-05-09T07:59:18.749Z,3.25
2023-05-09T08:02:21.827Z,3.65
2023-05-09T08:06:48.740Z,3.20
2023-05-09T08:09:51.638Z,3.03
2023-05-09T08:14:04.582Z,2.97
2023-05-09T08:17:36.249Z,2.80
2023-05-09T08:20:56.004Z,2.70
2023-05-09T08:23:58.752Z,2.70
2023-05-09T08:27:20.536Z,2.63
2023-05-09T08:30:23.504Z,2.88
2023-05-09T08:33:26.473Z,3.65
2023-05-09T08:36:29.946Z,3.00
2023-05-09T08:39:35.150Z,3.10
2023-05-09T08:42:38.851Z,2.78
2023-05-09T08:45:48.016Z,2.70
2023-05-09T08:48:52.879Z,2.95
2023-05-09T08:51:59.355Z,2.78
2023-05-09T08:55:06.430Z,2.77
2023-05-09T08:58:13.692Z,3.00
2023-05-09T09:01:17.836Z,2.80
2023-05-09T09:04:20.874Z,2.78
2023-05-09T09:07:30.533Z,2.85
2023-05-09T09:10:35.554Z,2.77
2023-05-09T09:13:44.749Z,3.08
2023-05-09T09:16:49.149Z,3.00
2023-05-09T09:19:59.234Z,3.00
2023-05-09T09:23:05.704Z,2.58
2023-05-09T09:26:09.195Z,3.03
2023-05-09T09:29:14.979Z,3.20
2023-05-09T09:32:19.757Z,2.60
2023-05-09T09:35:22.762Z,2.45
2023-05-09T09:38:26.957Z,2.83
2023-05-09T09:42:01.733Z,2.20
2023-05-09T09:45:16.821Z,2.53
2023-05-09T09:48:35.023Z,2.15
2023-05-09T09:51:37.943Z,1.90
2023-05-09T09:54:41.021Z,1.90
2023-05-09T09:57:48.208Z,2.07
2023-05-09T10:01:11.565Z,1.67
2023-05-09T10:04:16.970Z,2.28
2023-05-09T10:07:24.004Z,2.20
2023-05-09T10:10:32.141Z,1.90
2023-05-09T10:13:36.639Z,1.73
2023-05-09T10:16:44.266Z,2.20
2023-05-09T10:19:51.653Z,2.13
2023-05-09T10:22:58.270Z,2.20
2023-05-09T10:26:52.905Z,1.70
2023-05-09T10:35:05.998Z,1.80
2023-05-09T10:38:12.726Z,1.95
2023-05-09T10:41:17.354Z,1.77
2023-05-09T10:44:23.429Z,2.70
2023-05-09T10:47:28.210Z,1.93
2023-05-09T10:50:53.420Z,2.30
2023-05-09T10:53:57.244Z,1.90
2023-05-09T10:57:01.061Z,1.60
2023-05-09T11:00:05.536Z,1.55
2023-05-09T11:03:09.103Z,1.70
2023-05-09T11:06:51.668Z,1.30
2023-05-09T11:10:41.949Z,1.33
2023-05-09T11:13:46.637Z,1.50
2023-05-09T11:25:14.397Z,2.55
2023-05-09T11:29:19.297Z,1.60
2023-05-09T11:32:35.041Z,1.70
2023-05-09T11:35:38.465Z,1.58
2023-05-09T11:39:31.486Z,1.47
2023-05-09T11:42:34.927Z,1.48
2023-05-09T11:45:39.313Z,1.58
2023-05-09T11:48:42.601Z,1.40
2023-05-09T11:51:45.567Z,1.60
2023-05-09T11:54:49.755Z,1.40
2023-05-09T11:57:54.762Z,1.30
2023-05-09T12:00:58.150Z,1.30
2023-05-09T12:04:02.552Z,1.30
2023-05-09T12:07:05.661Z,1.40
2023-05-09T12:10:13.861Z,1.33
2023-05-09T12:13:16.811Z,1.48
2023-05-09T12:16:21.280Z,1.88
2023-05-09T12:19:25.535Z,1.98
2023-05-09T12:22:48.738Z,1.60
2023-05-09T12:25:56.537Z,1.37
2023-05-09T12:29:00.979Z,1.42
2023-05-09T12:32:06.436Z,1.67
2023-05-09T12:35:10.918Z,1.63
2023-05-09T12:38:29.172Z,1.70
2023-05-09T12:42:00.342Z,1.70
2023-05-09T12:45:08.085Z,1.50
2023-05-09T12:48:11.958Z,1.60
2023-05-09T12:51:33.628Z,1.63
2023-05-09T12:54:39.378Z,1.45
2023-05-09T12:57:43.346Z,1.63
2023-05-09T13:00:46.593Z,2.50
2023-05-09T13:03:53.991Z,1.60
2023-05-09T13:07:00.177Z,2.63
2023-05-09T13:10:03.691Z,2.15
2023-05-09T13:13:06.609Z,1.60
2023-05-09T13:16:11.241Z,1.63
2023-05-09T13:19:18.420Z,1.75
2023-05-09T13:22:23.929Z,1.90
2023-05-09T13:25:26.854Z,1.95
2023-05-09T13:28:29.708Z,1.80
2023-05-09T13:31:32.753Z,1.80
2023-05-09T13:34:35.575Z,1.38
2023-05-09T13:37:42.501Z,1.25
2023-05-09T13:40:45.421Z,1.30
2023-05-09T13:43:48.489Z,1.20
2023-05-09T13:46:51.389Z,1.50
2023-05-09T13:49:54.246Z,1.40
2023-05-09T13:52:57.238Z,1.40
2023-05-09T13:56:00.003Z,1.23
2023-05-09T13:59:02.771Z,1.40
2023-05-09T14:02:05.821Z,1.33
2023-05-09T14:05:09.154Z,1.30
2023-05-09T14:08:12.548Z,1.52
2023-05-09T14:11:26.884Z,1.30
2023-05-09T14:14:29.664Z,1.30
2023-05-09T14:17:38.094Z,1.30
2023-05-09T14:20:42.438Z,1.50
2023-05-09T14:23:45.437Z,1.33
2023-05-09T14:27:19.333Z,1.50
2023-05-09T14:30:25.906Z,1.60
2023-05-09T14:33:29.311Z,1.30
2023-05-09T14:36:33.112Z,1.60
2023-05-09T14:39:36.585Z,1.42
2023-05-09T14:42:39.411Z,1.60
2023-05-09T14:45:42.186Z,1.33
2023-05-09T14:48:45.038Z,1.50
2023-05-09T14:51:47.892Z,1.70
2023-05-09T14:54:50.804Z,1.45
2023-05-09T14:57:53.816Z,1.45
2023-05-09T15:00:56.879Z,1.40
2023-05-09T15:03:59.709Z,1.13
2023-05-09T15:07:02.541Z,1.25
2023-05-09T15:10:05.983Z,1.27
2023-05-09T15:13:08.915Z,1.50
2023-05-09T15:16:12.377Z,1.40
2023-05-09T15:19:15.285Z,1.35
2023-05-09T15:22:18.111Z,1.55
2023-05-09T15:25:22.001Z,1.30
2023-05-09T15:28:24.909Z,1.30
2023-05-09T15:31:32.781Z,1.20
2023-05-09T15:34:35.816Z,1.10
2023-05-09T15:37:38.585Z,1.33
2023-05-09T15:40:41.524Z,1.20
2023-05-09T15:43:44.343Z,1.00
2023-05-09T15:46:47.259Z,1.37
2023-05-09T15:49:50.138Z,1.23
2023-05-09T15:52:53.008Z,1.13
2023-05-09T15:55:56.734Z,1.00
2023-05-09T15:58:59.682Z,1.38
2023-05-09T16:02:02.554Z,1.23
2023-05-09T16:05:05.617Z,1.20
2023-05-09T16:08:08.597Z,1.27
2023-05-09T16:11:18.903Z,1.30
2023-05-09T16:14:21.818Z,1.63
2023-05-09T16:17:24.699Z,1.20
2023-05-09T16:20:27.475Z,2.28
2023-05-09T16:23:30.288Z,4.35
2023-05-09T16:26:33.117Z,2.40
2023-05-09T16:29:35.978Z,2.38
2023-05-09T16:32:38.804Z,2.17
2023-05-09T16:35:41.642Z,1.85
2023-05-09T16:38:44.458Z,2.50
2023-05-09T16:41:47.341Z,2.72
2023-05-09T16:44:50.140Z,2.45
2023-05-09T16:51:59.523Z,2.58
2023-05-09T16:58:28.208Z,2.70
2023-05-09T17:01:31.296Z,3.15
2023-05-09T17:04:36.705Z,3.20
2023-05-09T17:07:44.503Z,2.88
2023-05-09T17:10:47.302Z,3.13
2023-05-09T17:13:50.293Z,3.00
2023-05-09T17:16:55.846Z,3.53
2023-05-09T17:19:58.817Z,3.37
2023-05-09T17:23:01.651Z,3.60
2023-05-09T17:26:04.920Z,3.65
2023-05-09T17:29:07.787Z,4.88
2023-05-09T17:32:10.598Z,4.00
2023-05-09T17:35:14.003Z,4.50
2023-05-09T17:38:17.581Z,4.55
2023-05-09T17:41:20.382Z,5.03
2023-05-09T17:44:23.190Z,5.18
2023-05-09T17:47:26.109Z,4.95
2023-05-09T17:50:29.326Z,5.10
2023-05-09T17:53:32.500Z,5.03
2023-05-09T17:56:35.422Z,5.47
2023-05-09T17:59:40.640Z,5.88
2023-05-09T18:02:43.875Z,4.93
2023-05-09T18:05:46.757Z,5.70
2023-05-09T18:08:49.513Z,5.10
2023-05-09T18:11:52.361Z,5.47
2023-05-09T18:14:55.688Z,6.25
2023-05-09T18:17:59.265Z,7.07
2023-05-09T18:21:29.981Z,8.13
2023-05-09T18:25:00.789Z,7.95
2023-05-09T18:28:05.792Z,9.00
2023-05-09T18:31:16.957Z,8.60
2023-05-09T18:34:22.640Z,8.77
2023-05-09T18:37:27.369Z,8.73
2023-05-09T18:40:30.176Z,10.35
2023-05-09T18:43:33.069Z,10.07
2023-05-09T18:46:36.055Z,10.60
2023-05-09T18:49:39.415Z,9.63
2023-05-09T18:52:44.425Z,18.60
2023-05-09T18:55:48.141Z,18.70
2023-05-09T18:58:51.287Z,19.63
2023-05-09T19:01:54.179Z,24.20
2023-05-09T19:04:57.064Z,31.05
2023-05-09T19:07:59.866Z,28.97
2023-05-09T19:11:02.789Z,28.08
2023-05-09T19:14:05.736Z,27.60
2023-05-09T19:17:08.860Z,24.70
2023-05-09T19:20:12.655Z,22.92
2023-05-09T19:23:15.773Z,17.10
2023-05-09T19:26:19.604Z,14.50
2023-05-09T19:29:22.414Z,12.38
2023-05-09T19:32:25.502Z,11.13
2023-05-09T19:35:28.264Z,12.90
2023-05-09T19:38:31.362Z,11.43
2023-05-09T19:41:34.853Z,9.82
2023-05-09T19:44:38.927Z,9.20
2023-05-09T19:47:42.779Z,8.05
2023-05-09T19:50:46.312Z,7.43
2023-05-09T19:53:49.387Z,7.13
2023-05-09T19:56:52.541Z,6.60
2023-05-09T19:59:58.010Z,8.13
2023-05-09T20:03:03.637Z,9.70
2023-05-09T20:06:07.835Z,8.38
2023-05-09T20:09:10.643Z,6.50
2023-05-09T20:12:14.445Z,5.78
2023-05-09T20:15:17.404Z,4.70
2023-05-09T20:18:20.224Z,4.05
2023-05-09T20:21:23.122Z,4.18
2023-05-09T20:24:26.246Z,3.80
2023-05-09T20:27:30.858Z,4.00
2023-05-09T20:30:34.009Z,3.63
2023-05-09T20:33:36.804Z,3.72
2023-05-09T20:36:39.931Z,4.03
2023-05-09T20:39:42.724Z,3.77
2023-05-09T20:42:45.508Z,3.53
2023-05-09T20:45:48.485Z,3.63
2023-05-09T20:48:51.839Z,3.60
2023-05-09T20:51:55.450Z,3.88
2023-05-09T20:54:59.435Z,3.23
2023-05-09T20:58:02.336Z,3.47
2023-05-09T21:01:05.196Z,3.22
2023-05-09T21:04:08.651Z,3.00
2023-05-09T21:07:12.100Z,3.13
2023-05-09T21:10:15.437Z,3.07
2023-05-09T21:13:18.420Z,2.60
2023-05-09T21:16:21.414Z,3.03
2023-05-09T21:19:24.901Z,3.05
2023-05-09T21:22:27.686Z,2.63
2023-05-09T21:25:30.591Z,2.23
2023-05-09T21:28:33.660Z,2.45
2023-05-09T21:31:36.567Z,2.65
2023-05-09T21:34:39.435Z,2.50
2023-05-09T21:37:42.260Z,2.60
2023-05-09T21:40:45.005Z,2.67
2023-05-09T21:43:47.719Z,2.28
2023-05-09T21:46:50.535Z,2.97
2023-05-09T21:49:53.691Z,2.67
2023-05-09T21:52:57.465Z,2.42
2023-05-09T21:56:00.244Z,2.67
2023-05-09T21:59:03.168Z,2.60
2023-05-09T22:02:06.038Z,3.25
2023-05-09T22:05:10.803Z,3.20
2023-05-09T22:08:14.204Z,2.90
2023-05-09T22:11:17.994Z,3.40
2023-05-09T22:14:20.728Z,3.20
2023-05-09T22:17:24.427Z,3.22
2023-05-09T22:20:27.369Z,2.88
2023-05-09T22:23:30.245Z,3.10
2023-05-09T22:26:33.381Z,2.97
2023-05-09T22:29:36.459Z,3.40
2023-05-09T22:32:39.914Z,2.95
2023-05-09T22:35:42.684Z,3.00
2023-05-09T22:38:45.349Z,3.20
2023-05-09T22:41:48.368Z,3.00
2023-05-09T22:44:52.864Z,3.00
2023-05-09T22:47:55.706Z,3.33
2023-05-09T22:50:58.558Z,3.15
2023-05-09T22:54:01.699Z,3.90
2023-05-09T22:57:04.516Z,3.60
2023-05-09T23:00:07.881Z,3.85
2023-05-09T23:03:10.796Z,3.88
2023-05-09T23:06:13.644Z,3.47
2023-05-09T23:09:16.504Z,3.70
2023-05-09T23:12:19.680Z,4.30
2023-05-09T23:15:22.461Z,4.32
2023-05-09T23:18:25.841Z,4.63
2023-05-09T23:21:29.233Z,4.10
2023-05-09T23:24:31.981Z,4.43
2023-05-09T23:27:34.709Z,4.33
2023-05-09T23:30:37.658Z,4.45
2023-05-09T23:33:40.409Z,4.60
2023-05-09T23:36:43.399Z,5.40
2023-05-09T23:39:46.212Z,6.00
2023-05-09T23:42:48.908Z,5.43
2023-05-09T23:45:51.945Z,5.68
2023-05-09T23:48:54.992Z,6.40
2023-05-09T23:51:57.848Z,5.85
2023-05-09T23:55:00.701Z,5.88
2023-05-09T23:58:03.602Z,5.47
